Carepa, Apartado Airport (SKLC)

NameApartado Airport
CityCarepa
CountryColombia
ICAOSKLC
IATAAPO
Altitude14 m
CoordinatesGoogle Map
Live Air TrafficLiveATC.net
METARSKLC 212300Z 35010KT 9999 FEW023TCU SCT090 29/24 A2974 RMK TCU/S
2019-02-21 23:00:00 Wind: North-Northwest (350°) 5.14 m/s - Visibility: > 10000 m - Temperature: 29 °C - Dew point: 24 °C - Humidity: 74.5% - Pressure: 1007.11 hPa
Statistics

The table below shows the detailed information of all flights to/from Carepa, Apartado Airport (SKLC).